Time;durP1;ratioP1;P1;durP2;ratioP2;P2;SDS_P1;SDS_P2;PMS_P1;PMS_P2;Temp;Humidity;BMP_temperature;BMP_pressure;BME280_temperature;BME280_humidity;BME280_pressure;Samples;Min_cycle;Max_cycle;Signal;HPM_P1;HPM_P2
2023/03/02 00:01:32;;;;;;;19.20;11.68;;;2.60;99.90;;;;;;4993852;28;20030;-42
2023/03/02 00:04:00;;;;;;;19.67;11.25;;;2.70;99.90;;;;;;4993810;28;20379;-41
2023/03/02 00:06:28;;;;;;;22.98;13.27;;;2.70;99.90;;;;;;4995240;28;20112;-43
2023/03/02 00:08:54;;;;;;;19.83;11.68;;;2.60;99.90;;;;;;5019334;23;20038;-52
2023/03/02 00:11:20;;;;;;;23.13;12.05;;;2.70;99.90;;;;;;5014752;28;20018;-50
2023/03/02 00:13:46;;;;;;;20.42;11.95;;;2.60;99.90;;;;;;5014660;28;20073;-57
2023/03/02 00:16:11;;;;;;;22.13;12.73;;;2.60;99.90;;;;;;5012963;28;20131;-57
2023/03/02 00:18:37;;;;;;;26.88;11.90;;;2.60;99.90;;;;;;5012379;28;20018;-53
2023/03/02 00:21:02;;;;;;;18.60;12.00;;;2.60;99.90;;;;;;5012936;28;20053;-55
2023/03/02 00:23:28;;;;;;;18.38;11.75;;;2.60;99.90;;;;;;5013301;28;20021;-53
2023/03/02 00:25:54;;;;;;;19.00;12.20;;;2.50;99.90;;;;;;5012389;28;20025;-54
2023/03/02 00:28:19;;;;;;;21.17;11.70;;;2.50;99.90;;;;;;5012653;28;20079;-50
2023/03/02 00:30:45;;;;;;;17.50;11.10;;;2.50;99.90;;;;;;5012747;28;20088;-55
2023/03/02 00:33:11;;;;;;;24.33;12.70;;;2.50;99.90;;;;;;4996800;28;20050;-52
2023/03/02 00:35:38;;;;;;;21.65;12.45;;;2.40;99.90;;;;;;5012553;28;20072;-54
2023/03/02 00:38:04;;;;;;;21.02;12.85;;;2.40;99.90;;;;;;5012653;28;20022;-49
2023/03/02 00:40:29;;;;;;;19.23;11.43;;;2.40;99.90;;;;;;5012616;28;20136;-51
2023/03/02 00:42:55;;;;;;;26.35;11.75;;;2.40;99.90;;;;;;5012574;28;20025;-51
2023/03/02 00:45:20;;;;;;;17.52;11.35;;;2.40;99.90;;;;;;5012520;28;20030;-51
2023/03/02 00:47:46;;;;;;;22.98;13.80;;;2.40;99.90;;;;;;5011738;28;20109;-53
2023/03/02 00:50:12;;;;;;;24.08;12.07;;;2.40;99.90;;;;;;5012063;28;20038;-52
2023/03/02 00:52:37;;;;;;;22.38;12.80;;;2.40;99.90;;;;;;5012318;28;20018;-53
2023/03/02 00:55:03;;;;;;;22.50;12.35;;;2.40;99.90;;;;;;5012203;28;20087;-51
2023/03/02 00:57:28;;;;;;;16.38;11.38;;;2.40;99.90;;;;;;5012097;28;20112;-51
2023/03/02 00:59:54;;;;;;;23.55;13.52;;;2.40;99.90;;;;;;5012270;28;20065;-53
2023/03/02 01:02:20;;;;;;;20.08;13.02;;;2.50;99.90;;;;;;5013523;28;20026;-54
2023/03/02 01:04:47;;;;;;;18.33;11.88;;;2.40;99.90;;;;;;5012104;28;20517;-53
2023/03/02 01:07:14;;;;;;;19.90;11.85;;;2.40;99.90;;;;;;5011994;28;20091;-52
2023/03/02 01:09:41;;;;;;;19.17;11.70;;;2.40;99.90;;;;;;5013646;28;20061;-54
2023/03/02 01:12:09;;;;;;;18.98;11.82;;;2.40;99.90;;;;;;5012234;28;20025;-55
2023/03/02 01:14:37;;;;;;;20.45;12.50;;;2.40;99.90;;;;;;5012082;28;20026;-49
2023/03/02 01:17:03;;;;;;;21.05;12.20;;;2.50;99.90;;;;;;5012017;28;20025;-51
2023/03/02 01:19:29;;;;;;;20.88;12.18;;;2.40;99.90;;;;;;5011727;28;20022;-50
2023/03/02 01:21:54;;;;;;;22.95;13.23;;;2.40;99.90;;;;;;5011859;28;20022;-53
2023/03/02 01:24:20;;;;;;;18.67;11.23;;;2.40;99.90;;;;;;5011870;28;20014;-49
2023/03/02 01:26:45;;;;;;;21.55;11.40;;;2.40;99.90;;;;;;5011580;28;20018;-49
2023/03/02 01:29:11;;;;;;;21.75;12.05;;;2.40;99.90;;;;;;5011829;28;20045;-51
2023/03/02 01:31:37;;;;;;;18.45;11.65;;;2.40;99.90;;;;;;5011658;28;20018;-51
2023/03/02 01:34:03;;;;;;;26.33;12.02;;;2.40;99.90;;;;;;5012092;28;20478;-52
2023/03/02 01:36:28;;;;;;;20.42;11.43;;;2.30;99.90;;;;;;5011642;28;20030;-49
2023/03/02 01:38:54;;;;;;;22.67;12.43;;;2.30;99.90;;;;;;5011322;28;20057;-53
2023/03/02 01:41:19;;;;;;;26.65;13.40;;;2.30;99.90;;;;;;5011499;28;20022;-50
2023/03/02 01:43:45;;;;;;;19.60;11.75;;;2.30;99.90;;;;;;5011385;28;20022;-52
2023/03/02 01:46:23;;;;;;;23.15;12.48;;;2.30;99.90;;;;;;5010161;28;20356;-54
2023/03/02 01:49:02;;;;;;;17.20;11.77;;;2.30;99.90;;;;;;5011158;28;20485;-52
2023/03/02 01:51:32;;;;;;;19.55;11.75;;;2.20;99.90;;;;;;5012580;28;20054;-54
2023/03/02 01:54:02;;;;;;;20.65;11.98;;;2.20;99.90;;;;;;5010663;28;20075;-53
2023/03/02 01:56:33;;;;;;;19.70;12.32;;;2.20;99.90;;;;;;5011253;28;20026;-52
2023/03/02 01:59:04;;;;;;;20.63;12.85;;;2.20;99.90;;;;;;5011072;28;20121;-51
2023/03/02 02:01:33;;;;;;;23.15;13.60;;;2.20;99.90;;;;;;5011431;28;20505;-51
2023/03/02 02:04:00;;;;;;;24.85;13.40;;;2.20;99.90;;;;;;5011346;28;20478;-54
2023/03/02 02:06:30;;;;;;;23.63;12.02;;;2.10;99.90;;;;;;5011122;28;20065;-53
2023/03/02 02:08:57;;;;;;;22.92;12.10;;;2.20;99.90;;;;;;5010891;28;20037;-49
2023/03/02 02:11:24;;;;;;;22.15;13.80;;;2.10;99.90;;;;;;5011006;28;20397;-50
2023/03/02 02:13:58;;;;;;;20.13;11.88;;;2.10;99.90;;;;;;5010904;28;20034;-49
2023/03/02 02:16:25;;;;;;;18.67;11.45;;;2.10;99.90;;;;;;5010967;28;20030;-51
2023/03/02 02:18:51;;;;;;;24.95;12.90;;;2.00;99.90;;;;;;5010609;28;20025;-50
2023/03/02 02:21:17;;;;;;;23.40;12.48;;;2.00;99.90;;;;;;5010910;28;20026;-55
2023/03/02 02:23:52;;;;;;;22.95;12.80;;;2.00;99.90;;;;;;5010976;28;20493;-52
2023/03/02 02:26:47;;;;;;;19.88;12.60;;;2.00;99.90;;;;;;5010625;28;20034;-50
2023/03/02 02:29:21;;;;;;;22.38;13.20;;;1.90;99.90;;;;;;5010851;28;20080;-53
2023/03/02 02:31:58;;;;;;;23.20;12.85;;;1.90;99.90;;;;;;5010758;28;20231;-52
2023/03/02 02:34:31;;;;;;;22.67;13.98;;;1.80;99.90;;;;;;5010610;28;20137;-45
2023/03/02 02:37:12;;;;;;;24.85;14.40;;;1.80;99.90;;;;;;5010566;28;20080;-49
2023/03/02 02:39:43;;;;;;;30.58;13.18;;;1.80;99.90;;;;;;5010568;28;20021;-54
2023/03/02 02:42:26;;;;;;;23.83;13.00;;;1.80;99.90;;;;;;5011944;28;20022;-52
2023/03/02 02:44:56;;;;;;;22.75;12.20;;;1.80;99.90;;;;;;5010685;28;20072;-55
2023/03/02 02:47:22;;;;;;;21.73;13.52;;;1.80;99.90;;;;;;5010240;28;20022;-49
2023/03/02 02:49:51;;;;;;;26.77;13.68;;;1.80;99.90;;;;;;5010325;28;20184;-54
2023/03/02 02:52:19;;;;;;;23.05;12.93;;;1.80;99.90;;;;;;5010473;28;20033;-51
2023/03/02 02:54:48;;;;;;;23.38;12.02;;;1.80;99.90;;;;;;5010184;28;20026;-52
2023/03/02 02:57:16;;;;;;;29.10;12.55;;;1.70;99.90;;;;;;5010475;28;20497;-49
2023/03/02 02:59:54;;;;;;;21.23;12.82;;;1.80;99.90;;;;;;5010362;28;20030;-54
2023/03/02 03:02:26;;;;;;;25.20;13.93;;;1.70;99.90;;;;;;5010447;28;20026;-50
2023/03/02 03:05:01;;;;;;;38.22;14.55;;;1.70;99.90;;;;;;5010349;28;20104;-53
2023/03/02 03:07:27;;;;;;;28.65;13.65;;;1.70;99.90;;;;;;5010297;28;20028;-51
2023/03/02 03:10:18;;;;;;;24.98;12.88;;;1.70;99.90;;;;;;5010191;28;20088;-54
2023/03/02 03:12:45;;;;;;;23.73;14.05;;;1.70;99.90;;;;;;5014172;28;20071;-50
2023/03/02 03:15:11;;;;;;;21.13;12.52;;;1.60;99.90;;;;;;5014017;28;20404;-52
2023/03/02 03:17:37;;;;;;;19.90;11.95;;;1.60;99.90;;;;;;5014366;28;20366;-53
2023/03/02 03:20:09;;;;;;;21.92;13.05;;;1.60;99.90;;;;;;5014196;28;20041;-52
2023/03/02 03:22:38;;;;;;;19.67;12.38;;;1.60;99.90;;;;;;5014125;28;20022;-54
2023/03/02 03:25:05;;;;;;;24.48;12.88;;;1.60;99.90;;;;;;5014232;28;20026;-53
2023/03/02 03:27:30;;;;;;;28.10;13.05;;;1.60;99.90;;;;;;5013947;28;20169;-51
2023/03/02 03:29:56;;;;;;;23.88;13.38;;;1.60;99.90;;;;;;5013746;28;20113;-53
2023/03/02 03:32:21;;;;;;;21.17;13.15;;;1.50;99.90;;;;;;5014006;28;20481;-51
2023/03/02 03:34:48;;;;;;;26.00;12.20;;;1.50;99.90;;;;;;5013649;28;20093;-58
2023/03/02 03:37:18;;;;;;;25.25;12.68;;;1.50;99.90;;;;;;5013637;28;20030;-56
2023/03/02 03:39:43;;;;;;;22.23;12.95;;;1.50;99.90;;;;;;5013677;28;20022;-55
2023/03/02 03:42:10;;;;;;;19.98;12.57;;;1.50;99.90;;;;;;5013915;28;20029;-53
2023/03/02 03:44:36;;;;;;;21.70;12.98;;;1.50;99.90;;;;;;5013499;28;20030;-57
2023/03/02 03:47:01;;;;;;;25.70;13.55;;;1.50;99.90;;;;;;5013214;28;20072;-49
2023/03/02 03:49:27;;;;;;;23.70;13.10;;;1.50;99.90;;;;;;5013572;28;20037;-52
2023/03/02 03:51:53;;;;;;;21.90;12.88;;;1.50;99.90;;;;;;5013429;28;20046;-54
2023/03/02 03:54:18;;;;;;;22.00;12.93;;;1.50;99.90;;;;;;5013368;28;20065;-51
2023/03/02 03:56:47;;;;;;;20.65;12.52;;;1.50;99.90;;;;;;5013129;28;20026;-55
2023/03/02 03:59:17;;;;;;;23.60;13.65;;;1.60;99.90;;;;;;5013407;28;20037;-54
2023/03/02 04:01:55;;;;;;;23.75;13.07;;;1.50;99.90;;;;;;5013293;28;20026;-55
2023/03/02 04:04:32;;;;;;;18.67;12.38;;;1.50;99.90;;;;;;5013218;28;20034;-54
2023/03/02 04:06:58;;;;;;;23.33;13.73;;;1.50;99.90;;;;;;5013325;28;20509;-49
2023/03/02 04:09:25;;;;;;;24.25;14.32;;;1.40;99.90;;;;;;5012644;28;20057;-52
2023/03/02 04:11:53;;;;;;;27.15;13.52;;;1.40;99.90;;;;;;5013004;28;20034;-57
2023/03/02 04:14:20;;;;;;;22.92;12.18;;;1.40;99.90;;;;;;5013210;28;20022;-54
2023/03/02 04:16:46;;;;;;;26.77;13.90;;;1.30;99.90;;;;;;5012824;28;20079;-55
2023/03/02 04:19:13;;;;;;;20.85;12.15;;;1.30;99.90;;;;;;5012965;28;20022;-54
2023/03/02 04:21:41;;;;;;;20.33;13.00;;;1.30;99.90;;;;;;5013391;28;20080;-54
2023/03/02 04:24:08;;;;;;;22.23;12.50;;;1.30;99.90;;;;;;5012433;28;20037;-52
2023/03/02 04:26:35;;;;;;;22.13;12.30;;;1.30;99.90;;;;;;5012749;28;20034;-51
2023/03/02 04:29:01;;;;;;;29.25;12.55;;;1.30;99.90;;;;;;5012725;28;20117;-53
2023/03/02 04:31:27;;;;;;;23.30;13.70;;;1.20;99.90;;;;;;5012796;28;20120;-53
2023/03/02 04:33:52;;;;;;;19.70;11.45;;;1.20;99.90;;;;;;5012573;28;20147;-51
2023/03/02 04:36:18;;;;;;;20.45;12.52;;;1.20;99.90;;;;;;5012617;28;20029;-52
2023/03/02 04:38:44;;;;;;;21.88;11.95;;;1.20;99.90;;;;;;5012216;28;20026;-55
2023/03/02 04:41:10;;;;;;;21.30;12.07;;;1.20;99.90;;;;;;5012458;28;20030;-53
2023/03/02 04:43:35;;;;;;;26.75;13.05;;;1.20;99.90;;;;;;5012532;28;20022;-50
2023/03/02 04:46:01;;;;;;;22.17;11.32;;;1.20;99.90;;;;;;5012300;28;20029;-55
2023/03/02 04:48:27;;;;;;;17.63;11.07;;;1.20;99.90;;;;;;5011977;28;20026;-54
2023/03/02 04:50:52;;;;;;;21.40;13.40;;;1.20;99.90;;;;;;5012367;28;20042;-49
2023/03/02 04:53:18;;;;;;;24.33;12.32;;;1.20;99.90;;;;;;5012375;28;20022;-54
2023/03/02 04:55:43;;;;;;;22.33;12.25;;;1.20;99.90;;;;;;5012159;28;20026;-51
2023/03/02 04:58:09;;;;;;;19.10;11.10;;;1.20;99.90;;;;;;5012188;28;20116;-50
2023/03/02 05:00:35;;;;;;;20.02;11.40;;;1.20;99.90;;;;;;5012543;28;20102;-50
2023/03/02 05:03:02;;;;;;;22.60;12.57;;;1.20;99.90;;;;;;5014165;28;20052;-54
2023/03/02 05:05:29;;;;;;;21.92;12.48;;;1.20;99.90;;;;;;5013208;28;20037;-49
2023/03/02 05:07:55;;;;;;;20.83;12.43;;;1.20;99.90;;;;;;5012882;28;20118;-47
2023/03/02 05:10:21;;;;;;;21.48;12.77;;;1.20;99.90;;;;;;5013216;28;20405;-49
2023/03/02 05:12:53;;;;;;;19.45;11.95;;;1.20;99.90;;;;;;5013027;28;20030;-50
2023/03/02 05:15:27;;;;;;;20.02;12.60;;;1.20;99.90;;;;;;5012571;28;20034;-51
2023/03/02 05:17:54;;;;;;;21.75;11.95;;;1.20;99.90;;;;;;5011760;28;20022;-53
2023/03/02 05:20:20;;;;;;;21.38;13.52;;;1.20;99.90;;;;;;5011967;28;20121;-53
2023/03/02 05:22:46;;;;;;;18.05;11.02;;;1.20;99.90;;;;;;5012115;28;20124;-55
2023/03/02 05:25:13;;;;;;;21.08;12.20;;;1.20;99.90;;;;;;5011828;28;20510;-53
2023/03/02 05:27:38;;;;;;;22.48;12.23;;;1.20;99.90;;;;;;5011548;28;20501;-50
2023/03/02 05:30:05;;;;;;;21.48;12.27;;;1.20;99.90;;;;;;5011683;28;20025;-51
2023/03/02 05:32:31;;;;;;;21.38;12.73;;;1.20;99.90;;;;;;5011614;28;20036;-49
2023/03/02 05:34:56;;;;;;;19.70;10.98;;;1.20;99.90;;;;;;5011195;28;20116;-50
2023/03/02 05:37:22;;;;;;;20.63;11.25;;;1.20;99.90;;;;;;5011444;28;20024;-56
2023/03/02 05:39:47;;;;;;;18.85;11.38;;;1.20;99.90;;;;;;5011757;28;20117;-50
2023/03/02 05:42:13;;;;;;;20.98;12.00;;;1.20;99.90;;;;;;5011859;28;20466;-50
2023/03/02 05:44:38;;;;;;;18.35;10.95;;;1.20;99.90;;;;;;5011351;28;20501;-54
2023/03/02 05:47:04;;;;;;;26.02;13.20;;;1.30;99.90;;;;;;5011164;28;20026;-48
2023/03/02 05:49:30;;;;;;;19.40;11.48;;;1.30;99.90;;;;;;5011807;28;20026;-50
2023/03/02 05:51:55;;;;;;;21.15;11.93;;;1.30;99.90;;;;;;5011847;28;20193;-50
2023/03/02 05:54:21;;;;;;;20.88;11.60;;;1.20;99.90;;;;;;5011282;28;20026;-50
2023/03/02 05:56:47;;;;;;;22.60;11.55;;;1.20;99.90;;;;;;5011106;28;20026;-55
2023/03/02 05:59:12;;;;;;;20.23;11.95;;;1.20;99.90;;;;;;5010952;28;20026;-53
2023/03/02 06:01:38;;;;;;;18.58;11.90;;;1.30;99.90;;;;;;5011378;28;20021;-54
2023/03/02 06:04:04;;;;;;;17.88;11.48;;;1.30;99.90;;;;;;5010956;28;20017;-50
2023/03/02 06:06:29;;;;;;;17.83;11.25;;;1.30;99.90;;;;;;5012801;28;20037;-49
2023/03/02 06:08:55;;;;;;;23.00;12.00;;;1.30;99.90;;;;;;5019341;23;22611;-41
2023/03/02 06:11:20;;;;;;;18.42;10.90;;;1.30;99.90;;;;;;4992439;28;20046;-45
2023/03/02 06:13:46;;;;;;;20.42;11.43;;;1.30;99.90;;;;;;4991482;28;20018;-43
2023/03/02 06:16:11;;;;;;;24.67;11.55;;;1.30;99.90;;;;;;4991090;28;20014;-42
2023/03/02 06:18:37;;;;;;;23.55;12.80;;;1.30;99.90;;;;;;4991183;28;20122;-45
2023/03/02 06:21:03;;;;;;;17.73;10.98;;;1.30;99.90;;;;;;4992435;28;20033;-44
2023/03/02 06:23:29;;;;;;;17.83;10.27;;;1.30;99.90;;;;;;4991008;28;20481;-45
2023/03/02 06:25:55;;;;;;;21.48;10.73;;;1.30;99.90;;;;;;4991147;28;20037;-46
2023/03/02 06:28:20;;;;;;;19.25;10.90;;;1.40;99.90;;;;;;4991481;28;20061;-45
2023/03/02 06:30:47;;;;;;;20.67;11.93;;;1.50;99.90;;;;;;4992209;28;20084;-46
2023/03/02 06:33:14;;;;;;;17.63;11.23;;;1.60;99.90;;;;;;4991061;28;20113;-43
2023/03/02 06:35:41;;;;;;;21.25;11.77;;;1.80;99.90;;;;;;4992154;28;20101;-48
2023/03/02 06:38:06;;;;;;;18.35;11.25;;;1.90;99.90;;;;;;4991984;28;20110;-43
2023/03/02 06:40:32;;;;;;;19.73;10.77;;;2.00;99.90;;;;;;4990750;28;20070;-44
2023/03/02 06:42:59;;;;;;;20.33;11.02;;;2.20;99.90;;;;;;4991373;28;20096;-45
2023/03/02 06:45:26;;;;;;;18.83;10.63;;;2.30;99.90;;;;;;4991180;28;20030;-45
2023/03/02 06:47:52;;;;;;;15.80;10.00;;;2.50;99.90;;;;;;4991825;28;20034;-43
2023/03/02 06:50:18;;;;;;;18.25;10.20;;;2.60;99.90;;;;;;4992046;28;20122;-40
2023/03/02 06:52:44;;;;;;;15.98;9.75;;;2.80;99.90;;;;;;4990856;28;20049;-44
2023/03/02 06:55:10;;;;;;;18.13;10.45;;;2.90;99.90;;;;;;4990378;28;20550;-46
2023/03/02 06:57:35;;;;;;;20.85;11.48;;;3.00;99.90;;;;;;4990933;28;20485;-43
2023/03/02 07:00:23;;;;;;;20.17;11.80;;;3.20;99.90;;;;;;4974580;28;20025;-45
2023/03/02 07:02:49;;;;;;;18.63;10.60;;;3.30;99.90;;;;;;4977501;28;20502;-44
2023/03/02 07:05:14;;;;;;;19.85;10.02;;;3.30;99.90;;;;;;4990487;28;20072;-43
2023/03/02 07:07:40;;;;;;;16.58;10.05;;;3.40;99.90;;;;;;4990449;28;20023;-49
2023/03/02 07:10:07;;;;;;;15.38;9.90;;;3.50;99.90;;;;;;4991876;28;20501;-44
2023/03/02 07:12:33;;;;;;;16.63;9.75;;;3.50;99.90;;;;;;4991778;28;20026;-45
2023/03/02 07:14:59;;;;;;;16.05;9.93;;;3.70;99.90;;;;;;4991719;28;20023;-44
2023/03/02 07:17:25;;;;;;;17.33;10.30;;;3.80;99.90;;;;;;4991622;28;20104;-45
2023/03/02 07:19:50;;;;;;;15.48;9.23;;;3.90;99.90;;;;;;4990273;28;20025;-44
2023/03/02 07:22:16;;;;;;;18.10;9.02;;;4.00;99.90;;;;;;4992034;28;20084;-44
2023/03/02 07:24:41;;;;;;;17.83;10.40;;;4.20;99.90;;;;;;4990440;28;20029;-46
2023/03/02 07:27:07;;;;;;;17.70;11.00;;;4.40;99.90;;;;;;4990331;28;20110;-45
2023/03/02 07:29:32;;;;;;;20.35;10.70;;;4.40;99.90;;;;;;4990253;28;20030;-46
2023/03/02 07:31:58;;;;;;;15.05;10.15;;;4.60;99.90;;;;;;4990551;28;20030;-46
2023/03/02 07:34:24;;;;;;;17.05;9.43;;;4.80;99.70;;;;;;4991257;28;20033;-42
2023/03/02 07:36:50;;;;;;;21.52;10.52;;;5.10;99.00;;;;;;4990273;28;20022;-43
2023/03/02 07:39:15;;;;;;;15.50;10.25;;;5.20;98.90;;;;;;4991776;28;20030;-44
2023/03/02 07:41:41;;;;;;;20.10;11.23;;;5.60;98.80;;;;;;4991835;28;20026;-43
2023/03/02 07:44:06;;;;;;;19.60;11.07;;;5.30;98.50;;;;;;4990335;28;20402;-42
2023/03/02 07:46:32;;;;;;;18.40;10.15;;;4.70;99.30;;;;;;4989928;28;20371;-40
2023/03/02 07:49:01;;;;;;;16.08;10.55;;;4.40;99.90;;;;;;4991329;28;20397;-40
2023/03/02 07:51:26;;;;;;;16.95;11.75;;;4.00;99.90;;;;;;4990135;28;20035;-42
2023/03/02 07:53:52;;;;;;;19.00;11.00;;;3.80;99.90;;;;;;4990145;28;20146;-43
2023/03/02 07:56:19;;;;;;;16.70;10.55;;;3.70;99.90;;;;;;4992298;28;20109;-40
2023/03/02 07:58:44;;;;;;;21.52;10.50;;;3.60;99.90;;;;;;4995028;28;20019;-42
2023/03/02 08:01:10;;;;;;;21.48;10.38;;;3.60;99.90;;;;;;4993648;28;20023;-44
2023/03/02 08:03:36;;;;;;;21.38;10.75;;;3.60;99.90;;;;;;4995151;28;20402;-44
2023/03/02 08:06:12;;;;;;;20.73;11.02;;;3.60;99.90;;;;;;4977776;28;20058;-46
2023/03/02 08:08:37;;;;;;;;;;;3.70;99.90;;;;;;4995271;28;20053;-44
2023/03/02 08:11:09;;;;;;;20.70;11.13;;;3.70;99.90;;;;;;4977443;28;19952;-44
2023/03/02 08:13:35;;;;;;;19.38;11.40;;;3.80;99.90;;;;;;4991336;28;20508;-43
2023/03/02 08:16:06;;;;;;;19.65;10.85;;;3.80;99.90;;;;;;4994460;28;20034;-45
2023/03/02 08:18:33;;;;;;;21.73;10.63;;;3.80;99.90;;;;;;4993098;28;20109;-48
2023/03/02 08:20:58;;;;;;;19.35;10.43;;;3.90;99.90;;;;;;4994991;28;20081;-45
2023/03/02 08:23:25;;;;;;;19.08;10.85;;;3.90;99.90;;;;;;4978559;28;20030;-46
2023/03/02 08:25:54;;;;;;;19.25;11.50;;;4.00;99.90;;;;;;4975461;28;20031;-43
2023/03/02 08:28:21;;;;;;;18.33;11.07;;;4.10;99.90;;;;;;4985056;28;20555;-46
2023/03/02 08:31:00;;;;;;;18.98;10.48;;;4.10;99.90;;;;;;4972668;28;20475;-40
2023/03/02 08:33:27;;;;;;;20.27;11.93;;;4.20;99.90;;;;;;4992035;28;20026;-46
2023/03/02 08:36:01;;;;;;;20.50;11.90;;;4.20;99.90;;;;;;4994099;28;20691;-50
2023/03/02 08:38:27;;;;;;;18.02;11.55;;;4.30;99.90;;;;;;4992357;28;20034;-49
2023/03/02 08:40:53;;;;;;;21.52;10.95;;;4.40;99.90;;;;;;4992776;28;20018;-48
2023/03/02 08:43:19;;;;;;;22.38;11.25;;;4.40;99.90;;;;;;4992956;28;20505;-47
2023/03/02 08:45:49;;;;;;;18.58;11.73;;;4.50;99.90;;;;;;4975547;28;20038;-50
2023/03/02 08:48:15;;;;;;;16.83;10.40;;;4.50;99.90;;;;;;4987343;28;20037;-46
2023/03/02 08:50:40;;;;;;;19.98;11.05;;;4.70;99.90;;;;;;4993647;28;20287;-46
2023/03/02 08:53:06;;;;;;;15.85;10.88;;;4.60;99.90;;;;;;4976107;28;20122;-47
2023/03/02 08:55:35;;;;;;;18.45;10.43;;;4.80;99.90;;;;;;4991746;28;20038;-46
2023/03/02 08:58:00;;;;;;;19.98;11.85;;;4.80;99.90;;;;;;4992486;28;20113;-44
2023/03/02 09:00:26;;;;;;;20.10;10.68;;;4.80;99.90;;;;;;4991702;28;20554;-43
2023/03/02 09:02:51;;;;;;;20.55;12.25;;;4.80;99.90;;;;;;4991304;28;20053;-51
2023/03/02 09:05:17;;;;;;;17.73;11.63;;;4.80;99.90;;;;;;4992700;28;20023;-48
2023/03/02 09:07:43;;;;;;;21.10;12.13;;;4.90;99.90;;;;;;4991921;28;20034;-52
2023/03/02 09:10:09;;;;;;;21.52;11.50;;;4.90;99.90;;;;;;4992012;28;20080;-52
2023/03/02 09:12:35;;;;;;;20.63;11.27;;;4.90;99.90;;;;;;4992091;28;20113;-53
2023/03/02 09:15:00;;;;;;;31.70;19.30;;;4.90;99.90;;;;;;4992286;28;20122;-49
2023/03/02 09:17:26;;;;;;;22.50;12.65;;;5.10;99.90;;;;;;4992263;28;20030;-53
2023/03/02 09:19:51;;;;;;;19.95;11.63;;;5.20;99.90;;;;;;4992500;28;20200;-51
2023/03/02 09:22:17;;;;;;;17.98;11.68;;;5.30;99.90;;;;;;4992171;28;20045;-50
2023/03/02 09:24:43;;;;;;;19.20;11.32;;;5.40;99.90;;;;;;4992106;28;20022;-48
2023/03/02 09:27:08;;;;;;;25.88;12.30;;;5.50;99.90;;;;;;4991925;28;20052;-50
2023/03/02 09:29:34;;;;;;;23.02;12.32;;;5.50;99.90;;;;;;4993307;28;20081;-48
2023/03/02 09:31:59;;;;;;;20.13;12.23;;;5.60;99.90;;;;;;4991701;28;20022;-54
2023/03/02 09:34:25;;;;;;;21.45;11.48;;;6.90;98.90;;;;;;4991547;28;20511;-52
2023/03/02 09:36:50;;;;;;;18.30;10.70;;;8.10;97.00;;;;;;4975433;28;20023;-56
2023/03/02 09:39:18;;;;;;;19.77;11.82;;;8.40;96.60;;;;;;4991775;28;20030;-52
2023/03/02 09:42:07;;;;;;;18.63;10.27;;;9.10;95.10;;;;;;4991988;28;20027;-52
2023/03/02 09:44:52;;;;;;;18.75;10.27;;;;;;;;;;4975520;28;20026;-50
2023/03/02 09:47:34;;;;;;;16.73;11.55;;;10.70;92.10;;;;;;4991389;28;20030;-48
2023/03/02 09:50:25;;;;;;;18.02;11.50;;;10.80;91.60;;;;;;4991938;28;20032;-49
2023/03/02 09:53:19;;;;;;;14.30;10.55;;;11.10;90.30;;;;;;4991607;28;20037;-49
2023/03/02 09:55:49;;;;;;;16.70;11.02;;;11.10;90.50;;;;;;4991292;28;20109;-54
2023/03/02 09:58:18;;;;;;;21.75;11.23;;;10.70;90.80;;;;;;4992471;28;20540;-50
2023/03/02 10:00:45;;;;;;;17.08;11.60;;;11.00;90.50;;;;;;4992629;28;20031;-54
2023/03/02 10:03:25;;;;;;;16.42;11.63;;;10.70;90.60;;;;;;4992929;28;20026;-51
2023/03/02 10:05:53;;;;;;;20.25;11.60;;;10.60;90.90;;;;;;4973359;28;20541;-51
2023/03/02 10:08:33;;;;;;;17.52;11.27;;;10.20;91.20;;;;;;4971815;28;20030;-49
2023/03/02 10:11:23;;;;;;;17.45;11.25;;;9.90;91.90;;;;;;4975579;28;20121;-54
2023/03/02 10:14:19;;;;;;;19.13;10.98;;;9.60;92.30;;;;;;4983916;28;20027;-53
2023/03/02 10:16:57;;;;;;;19.40;12.30;;;9.70;92.40;;;;;;4991130;28;20101;-51
2023/03/02 10:20:02;;;;;;;21.98;11.90;;;9.70;92.50;;;;;;4989937;28;20065;-49
2023/03/02 10:22:41;;;;;;;22.08;13.13;;;10.00;92.30;;;;;;4986543;28;20035;-48
2023/03/02 10:25:34;;;;;;;14.52;10.65;;;10.00;92.00;;;;;;4990592;28;20030;-49
2023/03/02 10:28:28;;;;;;;15.95;10.00;;;10.60;92.00;;;;;;4990791;28;20026;-51
2023/03/02 10:31:04;;;;;;;23.05;11.77;;;10.50;91.50;;;;;;4991509;28;20027;-50
2023/03/02 10:33:32;;;;;;;18.25;11.30;;;10.40;91.70;;;;;;4990745;28;20026;-55
2023/03/02 10:35:59;;;;;;;15.52;10.32;;;10.20;91.80;;;;;;4975148;28;20029;-54
2023/03/02 10:38:27;;;;;;;16.65;11.27;;;10.00;92.30;;;;;;4990821;28;20027;-51
2023/03/02 10:40:59;;;;;;;16.88;10.73;;;9.90;92.60;;;;;;4990905;28;20026;-51
2023/03/02 10:43:34;;;;;;;16.98;10.65;;;10.00;92.70;;;;;;4992171;28;20385;-50
2023/03/02 10:46:01;;;;;;;;;;;10.00;92.80;;;;;;4991367;28;20406;-53
2023/03/02 10:48:27;;;;;;;20.17;12.73;;;10.30;92.00;;;;;;4990931;28;19905;-53
2023/03/02 10:50:55;;;;;;;19.30;11.73;;;10.10;92.20;;;;;;4990620;28;20057;-50
2023/03/02 10:53:21;;;;;;;22.45;11.70;;;10.10;92.60;;;;;;4990684;28;20031;-48
2023/03/02 10:55:49;;;;;;;17.52;10.65;;;10.10;92.50;;;;;;4989468;28;20570;-50
2023/03/02 10:58:32;;;;;;;14.95;10.68;;;10.20;92.80;;;;;;4989701;28;20022;-53
2023/03/02 11:01:13;;;;;;;23.90;11.15;;;10.10;92.90;;;;;;4987707;28;20030;-52
2023/03/02 11:03:39;;;;;;;20.80;12.07;;;10.00;93.10;;;;;;4989678;28;20022;-49
2023/03/02 11:06:32;;;;;;;18.08;10.75;;;10.00;92.80;;;;;;5022574;28;20441;-51
2023/03/02 11:09:06;;;;;;;22.58;11.23;;;9.90;93.00;;;;;;4987435;28;20490;-48
2023/03/02 11:11:32;;;;;;;42.92;24.50;;;9.60;93.70;;;;;;4991058;28;20041;-51
2023/03/02 11:14:15;;;;;;;36.05;20.58;;;9.60;93.40;;;;;;4990481;28;20032;-47
2023/03/02 11:16:41;;;;;;;16.98;11.38;;;9.50;93.60;;;;;;4990242;28;20026;-49
2023/03/02 11:19:16;;;;;;;16.55;10.40;;;9.50;93.90;;;;;;4990126;28;20026;-58
2023/03/02 11:21:48;;;;;;;;;;;9.40;93.90;;;;;;4991971;28;20497;-56
2023/03/02 11:24:32;;;;;;;20.33;12.48;;;9.50;93.60;;;;;;4992073;28;19906;-56
2023/03/02 11:27:23;;;;;;;18.23;10.80;;;9.50;93.90;;;;;;4991968;28;20042;-53
2023/03/02 11:30:05;;;;;;;18.85;10.40;;;9.60;93.80;;;;;;4989605;28;20620;-51
2023/03/02 11:32:41;;;;;;;24.83;11.65;;;9.70;93.90;;;;;;4994315;28;20122;-51
2023/03/02 11:35:18;;;;;;;15.43;9.73;;;9.70;93.80;;;;;;4994562;28;20018;-50
2023/03/02 11:37:52;;;;;;;15.05;9.80;;;9.70;93.80;;;;;;4995340;28;20096;-54
2023/03/02 11:40:21;;;;;;;15.82;10.15;;;9.60;94.00;;;;;;4995897;28;20027;-48
2023/03/02 11:42:47;;;;;;;22.02;11.23;;;9.50;94.00;;;;;;4992959;28;20109;-52
2023/03/02 11:45:12;;;;;;;19.48;9.88;;;9.70;93.90;;;;;;4993908;28;20026;-50
2023/03/02 11:47:43;;;;;;;15.80;10.25;;;9.70;93.90;;;;;;4992873;28;20029;-49
2023/03/02 11:50:13;;;;;;;18.00;9.90;;;9.70;94.10;;;;;;4991943;28;20053;-51
2023/03/02 11:52:45;;;;;;;17.02;10.27;;;9.80;94.00;;;;;;4975396;28;20030;-52
2023/03/02 11:55:23;;;;;;;16.90;9.63;;;9.80;93.90;;;;;;4976416;28;20033;-54
2023/03/02 11:58:01;;;;;;;20.33;10.90;;;9.80;93.70;;;;;;4993004;28;20022;-51
2023/03/02 12:00:39;;;;;;;16.58;9.70;;;9.80;93.80;;;;;;4992732;28;20030;-54
2023/03/02 12:03:17;;;;;;;17.17;10.95;;;9.80;93.80;;;;;;4992375;28;20022;-53
2023/03/02 12:05:46;;;;;;;16.27;10.90;;;9.80;93.60;;;;;;4993722;28;20030;-50
2023/03/02 12:08:17;;;;;;;15.80;10.27;;;9.80;94.00;;;;;;4993617;28;20022;-53
2023/03/02 12:11:00;;;;;;;18.02;11.43;;;9.90;94.00;;;;;;5013461;23;20125;-60
2023/03/02 12:13:37;;;;;;;18.65;10.23;;;10.00;94.50;;;;;;5010414;28;20031;-58
2023/03/02 12:16:17;;;;;;;14.55;10.27;;;10.00;93.70;;;;;;4993939;28;20030;-58
2023/03/02 12:18:46;;;;;;;16.40;9.13;;;10.00;94.00;;;;;;4994194;28;20030;-59
2023/03/02 12:21:18;;;;;;;21.02;10.63;;;9.90;94.00;;;;;;4994079;28;20053;-60
2023/03/02 12:23:50;;;;;;;17.73;10.75;;;9.90;93.60;;;;;;4994405;28;20490;-60
2023/03/02 12:26:18;;;;;;;16.83;9.48;;;9.90;94.50;;;;;;4993743;28;20490;-61
2023/03/02 12:29:01;;;;;;;13.35;9.60;;;10.00;93.80;;;;;;4994504;28;20031;-58
2023/03/02 12:31:38;;;;;;;20.05;10.63;;;10.10;94.50;;;;;;4993764;28;20482;-61
2023/03/02 12:34:27;;;;;;;15.40;9.25;;;10.10;93.80;;;;;;4993432;28;20030;-57
2023/03/02 12:36:59;;;;;;;20.10;10.60;;;10.20;93.80;;;;;;4993394;28;20023;-61
2023/03/02 12:39:29;;;;;;;18.13;9.23;;;10.20;93.60;;;;;;4994656;28;20014;-58
2023/03/02 12:42:16;;;;;;;18.92;9.52;;;10.20;93.70;;;;;;4993462;28;20046;-53
2023/03/02 12:45:03;;;;;;;21.20;9.80;;;10.20;93.80;;;;;;4992262;28;20030;-55
2023/03/02 12:47:30;;;;;;;15.23;8.77;;;10.30;93.70;;;;;;4992997;28;20575;-56
2023/03/02 12:50:15;;;;;;;16.55;10.60;;;10.40;93.80;;;;;;4993098;28;20520;-56